sensor_id;sensor_type;location;lat;lon;timestamp;P1;durP1;ratioP1;P2;durP2;ratioP2
22425;SDS011;11380;50.822;15.790;2022-07-12T00:04:05;52.70;;;48.10;;
22425;SDS011;11380;50.822;15.790;2022-07-12T00:09:11;51.98;;;47.53;;
22425;SDS011;11380;50.822;15.790;2022-07-12T00:14:17;52.13;;;47.80;;
22425;SDS011;11380;50.822;15.790;2022-07-12T00:19:23;52.30;;;47.90;;
22425;SDS011;11380;50.822;15.790;2022-07-12T00:24:29;51.73;;;47.33;;
22425;SDS011;11380;50.822;15.790;2022-07-12T00:29:35;53.20;;;48.55;;
22425;SDS011;11380;50.822;15.790;2022-07-12T00:34:41;53.43;;;48.83;;
22425;SDS011;11380;50.822;15.790;2022-07-12T00:39:46;52.90;;;48.47;;
22425;SDS011;11380;50.822;15.790;2022-07-12T00:44:51;52.87;;;48.47;;
22425;SDS011;11380;50.822;15.790;2022-07-12T00:49:56;53.37;;;48.77;;
22425;SDS011;11380;50.822;15.790;2022-07-12T00:55:03;52.77;;;48.30;;
22425;SDS011;11380;50.822;15.790;2022-07-12T01:00:11;51.93;;;47.60;;
22425;SDS011;11380;50.822;15.790;2022-07-12T01:05:18;52.03;;;47.73;;
22425;SDS011;11380;50.822;15.790;2022-07-12T01:10:23;51.47;;;46.87;;
22425;SDS011;11380;50.822;15.790;2022-07-12T01:15:29;51.50;;;47.20;;
22425;SDS011;11380;50.822;15.790;2022-07-12T01:20:35;51.57;;;47.27;;
22425;SDS011;11380;50.822;15.790;2022-07-12T01:25:42;51.77;;;47.43;;
22425;SDS011;11380;50.822;15.790;2022-07-12T01:30:47;51.60;;;47.17;;
22425;SDS011;11380;50.822;15.790;2022-07-12T01:35:54;51.70;;;47.45;;
22425;SDS011;11380;50.822;15.790;2022-07-12T01:41:00;51.48;;;46.80;;
22425;SDS011;11380;50.822;15.790;2022-07-12T01:46:06;50.50;;;46.30;;
22425;SDS011;11380;50.822;15.790;2022-07-12T01:51:11;51.13;;;46.93;;
22425;SDS011;11380;50.822;15.790;2022-07-12T01:56:17;51.80;;;47.37;;
22425;SDS011;11380;50.822;15.790;2022-07-12T02:01:24;51.33;;;47.03;;
22425;SDS011;11380;50.822;15.790;2022-07-12T02:06:29;52.00;;;47.50;;
22425;SDS011;11380;50.822;15.790;2022-07-12T02:11:35;51.40;;;47.10;;
22425;SDS011;11380;50.822;15.790;2022-07-12T02:16:42;52.25;;;47.58;;
22425;SDS011;11380;50.822;15.790;2022-07-12T02:21:48;51.68;;;47.20;;
22425;SDS011;11380;50.822;15.790;2022-07-12T02:26:54;51.77;;;47.57;;
22425;SDS011;11380;50.822;15.790;2022-07-12T02:32:00;52.10;;;47.70;;
22425;SDS011;11380;50.822;15.790;2022-07-12T02:37:06;51.95;;;47.60;;
22425;SDS011;11380;50.822;15.790;2022-07-12T02:42:11;51.13;;;46.93;;
22425;SDS011;11380;50.822;15.790;2022-07-12T02:47:16;51.20;;;47.00;;
22425;SDS011;11380;50.822;15.790;2022-07-12T02:52:22;51.15;;;46.90;;
22425;SDS011;11380;50.822;15.790;2022-07-12T02:57:28;51.47;;;47.17;;
22425;SDS011;11380;50.822;15.790;2022-07-12T03:02:33;51.93;;;47.53;;
22425;SDS011;11380;50.822;15.790;2022-07-12T03:07:40;52.58;;;48.28;;
22425;SDS011;11380;50.822;15.790;2022-07-12T03:12:45;52.03;;;47.63;;
22425;SDS011;11380;50.822;15.790;2022-07-12T03:22:55;51.80;;;47.30;;
22425;SDS011;11380;50.822;15.790;2022-07-12T03:28:01;52.30;;;47.80;;
22425;SDS011;11380;50.822;15.790;2022-07-12T03:33:06;52.57;;;48.07;;
22425;SDS011;11380;50.822;15.790;2022-07-12T03:38:12;52.27;;;47.70;;
22425;SDS011;11380;50.822;15.790;2022-07-12T03:43:19;51.98;;;47.70;;
22425;SDS011;11380;50.822;15.790;2022-07-12T03:48:25;52.60;;;47.98;;
22425;SDS011;11380;50.822;15.790;2022-07-12T03:53:31;52.13;;;47.83;;
22425;SDS011;11380;50.822;15.790;2022-07-12T03:58:37;52.13;;;47.62;;
22425;SDS011;11380;50.822;15.790;2022-07-12T04:03:43;51.65;;;47.20;;
22425;SDS011;11380;50.822;15.790;2022-07-12T04:08:48;52.30;;;47.90;;
22425;SDS011;11380;50.822;15.790;2022-07-12T04:13:53;51.50;;;47.27;;
22425;SDS011;11380;50.822;15.790;2022-07-12T04:18:59;51.53;;;47.20;;
22425;SDS011;11380;50.822;15.790;2022-07-12T04:24:04;52.53;;;47.93;;
22425;SDS011;11380;50.822;15.790;2022-07-12T04:29:10;51.68;;;47.27;;
22425;SDS011;11380;50.822;15.790;2022-07-12T04:34:15;52.33;;;47.87;;
22425;SDS011;11380;50.822;15.790;2022-07-12T04:39:22;52.30;;;47.85;;
22425;SDS011;11380;50.822;15.790;2022-07-12T04:44:28;51.83;;;47.40;;
22425;SDS011;11380;50.822;15.790;2022-07-12T04:49:35;52.23;;;47.70;;
22425;SDS011;11380;50.822;15.790;2022-07-12T04:54:40;51.97;;;47.47;;
22425;SDS011;11380;50.822;15.790;2022-07-12T04:59:46;51.57;;;47.17;;
22425;SDS011;11380;50.822;15.790;2022-07-12T05:04:50;52.20;;;47.70;;
22425;SDS011;11380;50.822;15.790;2022-07-12T05:09:56;51.70;;;47.35;;
22425;SDS011;11380;50.822;15.790;2022-07-12T05:15:02;52.20;;;47.40;;
22425;SDS011;11380;50.822;15.790;2022-07-12T05:20:08;52.03;;;47.50;;
22425;SDS011;11380;50.822;15.790;2022-07-12T05:25:14;52.20;;;47.80;;
22425;SDS011;11380;50.822;15.790;2022-07-12T05:30:19;51.80;;;47.40;;
22425;SDS011;11380;50.822;15.790;2022-07-12T05:35:25;52.10;;;47.67;;
22425;SDS011;11380;50.822;15.790;2022-07-12T05:40:32;52.40;;;47.90;;
22425;SDS011;11380;50.822;15.790;2022-07-12T05:45:38;52.08;;;47.58;;
22425;SDS011;11380;50.822;15.790;2022-07-12T05:50:47;52.57;;;48.07;;
22425;SDS011;11380;50.822;15.790;2022-07-12T05:55:53;51.73;;;47.30;;
22425;SDS011;11380;50.822;15.790;2022-07-12T06:00:59;52.10;;;47.60;;
22425;SDS011;11380;50.822;15.790;2022-07-12T06:06:06;52.00;;;47.53;;
22425;SDS011;11380;50.822;15.790;2022-07-12T09:22:14;53.97;;;49.07;;
22425;SDS011;11380;50.822;15.790;2022-07-12T09:27:25;54.27;;;49.37;;
22425;SDS011;11380;50.822;15.790;2022-07-12T09:32:31;53.77;;;48.93;;
22425;SDS011;11380;50.822;15.790;2022-07-12T09:37:53;53.60;;;48.50;;
22425;SDS011;11380;50.822;15.790;2022-07-12T09:42:59;53.07;;;48.37;;
22425;SDS011;11380;50.822;15.790;2022-07-12T09:53:10;53.58;;;48.65;;
22425;SDS011;11380;50.822;15.790;2022-07-12T09:58:25;53.67;;;48.67;;
22425;SDS011;11380;50.822;15.790;2022-07-12T10:03:29;53.80;;;49.00;;
22425;SDS011;11380;50.822;15.790;2022-07-12T10:08:38;53.97;;;49.07;;
22425;SDS011;11380;50.822;15.790;2022-07-12T10:13:44;54.27;;;49.37;;
22425;SDS011;11380;50.822;15.790;2022-07-12T10:29:42;53.97;;;49.10;;
22425;SDS011;11380;50.822;15.790;2022-07-12T10:35:03;53.65;;;48.85;;
22425;SDS011;11380;50.822;15.790;2022-07-12T10:40:17;53.60;;;48.80;;
22425;SDS011;11380;50.822;15.790;2022-07-12T10:45:23;53.97;;;48.97;;
22425;SDS011;11380;50.822;15.790;2022-07-12T11:01:11;54.23;;;49.33;;
22425;SDS011;11380;50.822;15.790;2022-07-12T11:06:19;54.58;;;49.58;;
22425;SDS011;11380;50.822;15.790;2022-07-12T11:11:26;54.42;;;49.23;;
22425;SDS011;11380;50.822;15.790;2022-07-12T11:16:34;54.15;;;49.05;;
22425;SDS011;11380;50.822;15.790;2022-07-12T11:21:44;54.43;;;49.43;;
22425;SDS011;11380;50.822;15.790;2022-07-12T11:26:50;54.80;;;49.70;;
22425;SDS011;11380;50.822;15.790;2022-07-12T11:32:02;54.53;;;49.53;;
22425;SDS011;11380;50.822;15.790;2022-07-12T11:37:12;54.42;;;49.44;;
22425;SDS011;11380;50.822;15.790;2022-07-12T11:42:18;53.80;;;49.00;;
22425;SDS011;11380;50.822;15.790;2022-07-12T11:47:24;54.23;;;49.13;;
22425;SDS011;11380;50.822;15.790;2022-07-12T11:52:29;54.00;;;49.10;;
22425;SDS011;11380;50.822;15.790;2022-07-12T11:57:35;53.58;;;48.83;;
22425;SDS011;11380;50.822;15.790;2022-07-12T12:02:41;53.63;;;48.87;;
22425;SDS011;11380;50.822;15.790;2022-07-12T12:07:48;53.83;;;48.93;;
22425;SDS011;11380;50.822;15.790;2022-07-12T12:12:56;53.85;;;48.95;;
22425;SDS011;11380;50.822;15.790;2022-07-12T12:18:05;54.17;;;49.33;;
22425;SDS011;11380;50.822;15.790;2022-07-12T12:23:15;53.93;;;49.13;;
22425;SDS011;11380;50.822;15.790;2022-07-12T12:28:22;53.87;;;49.08;;
22425;SDS011;11380;50.822;15.790;2022-07-12T12:33:37;54.10;;;49.20;;
22425;SDS011;11380;50.822;15.790;2022-07-12T12:38:44;53.60;;;48.80;;
22425;SDS011;11380;50.822;15.790;2022-07-12T12:44:01;54.87;;;49.73;;
22425;SDS011;11380;50.822;15.790;2022-07-12T12:49:04;54.53;;;49.63;;
22425;SDS011;11380;50.822;15.790;2022-07-12T12:54:09;53.90;;;49.00;;
22425;SDS011;11380;50.822;15.790;2022-07-12T12:59:14;54.20;;;49.30;;
22425;SDS011;11380;50.822;15.790;2022-07-12T13:04:20;54.03;;;49.15;;
22425;SDS011;11380;50.822;15.790;2022-07-12T13:09:26;53.97;;;49.07;;
22425;SDS011;11380;50.822;15.790;2022-07-12T13:14:33;54.88;;;49.77;;
22425;SDS011;11380;50.822;15.790;2022-07-12T13:19:40;55.60;;;49.97;;
22425;SDS011;11380;50.822;15.790;2022-07-12T13:24:45;55.03;;;49.93;;
22425;SDS011;11380;50.822;15.790;2022-07-12T13:29:50;54.67;;;49.60;;
22425;SDS011;11380;50.822;15.790;2022-07-12T13:40:00;54.83;;;49.83;;
22425;SDS011;11380;50.822;15.790;2022-07-12T13:45:15;54.60;;;49.50;;
22425;SDS011;11380;50.822;15.790;2022-07-12T13:50:22;54.70;;;49.67;;
22425;SDS011;11380;50.822;15.790;2022-07-12T13:55:29;54.77;;;49.57;;
22425;SDS011;11380;50.822;15.790;2022-07-12T14:00:36;54.80;;;49.80;;
22425;SDS011;11380;50.822;15.790;2022-07-12T14:05:42;54.60;;;49.60;;
22425;SDS011;11380;50.822;15.790;2022-07-12T14:10:50;54.93;;;49.90;;
22425;SDS011;11380;50.822;15.790;2022-07-12T14:15:55;55.10;;;50.00;;
22425;SDS011;11380;50.822;15.790;2022-07-12T14:21:01;55.67;;;50.28;;
22425;SDS011;11380;50.822;15.790;2022-07-12T14:26:07;55.40;;;50.30;;
22425;SDS011;11380;50.822;15.790;2022-07-12T14:31:13;54.88;;;49.82;;
22425;SDS011;11380;50.822;15.790;2022-07-12T14:36:19;54.93;;;49.90;;
22425;SDS011;11380;50.822;15.790;2022-07-12T14:41:25;54.75;;;49.75;;
22425;SDS011;11380;50.822;15.790;2022-07-12T14:46:30;54.67;;;49.67;;
22425;SDS011;11380;50.822;15.790;2022-07-12T14:51:36;54.95;;;49.85;;
22425;SDS011;11380;50.822;15.790;2022-07-12T14:56:42;54.77;;;49.77;;
22425;SDS011;11380;50.822;15.790;2022-07-12T15:01:49;55.37;;;50.27;;
22425;SDS011;11380;50.822;15.790;2022-07-12T15:06:57;55.37;;;50.10;;
22425;SDS011;11380;50.822;15.790;2022-07-12T15:12:03;54.90;;;49.90;;
22425;SDS011;11380;50.822;15.790;2022-07-12T15:17:09;54.60;;;49.60;;
22425;SDS011;11380;50.822;15.790;2022-07-12T15:22:15;55.03;;;49.93;;
22425;SDS011;11380;50.822;15.790;2022-07-12T15:27:21;54.47;;;49.47;;
22425;SDS011;11380;50.822;15.790;2022-07-12T15:32:27;54.70;;;49.70;;
22425;SDS011;11380;50.822;15.790;2022-07-12T15:37:32;55.10;;;49.80;;
22425;SDS011;11380;50.822;15.790;2022-07-12T15:42:38;54.80;;;49.80;;
22425;SDS011;11380;50.822;15.790;2022-07-12T15:47:45;54.63;;;49.63;;
22425;SDS011;11380;50.822;15.790;2022-07-12T15:52:51;54.77;;;49.77;;
22425;SDS011;11380;50.822;15.790;2022-07-12T15:58:15;54.53;;;49.55;;
22425;SDS011;11380;50.822;15.790;2022-07-12T16:08:25;54.27;;;49.33;;
22425;SDS011;11380;50.822;15.790;2022-07-12T16:13:34;54.60;;;49.30;;
22425;SDS011;11380;50.822;15.790;2022-07-12T16:18:40;54.48;;;49.48;;
22425;SDS011;11380;50.822;15.790;2022-07-12T16:23:45;54.75;;;49.75;;
22425;SDS011;11380;50.822;15.790;2022-07-12T16:28:50;54.33;;;49.20;;
22425;SDS011;11380;50.822;15.790;2022-07-12T16:33:57;54.00;;;49.10;;
22425;SDS011;11380;50.822;15.790;2022-07-12T16:39:04;54.43;;;49.47;;
22425;SDS011;11380;50.822;15.790;2022-07-12T16:44:09;54.20;;;49.20;;
22425;SDS011;11380;50.822;15.790;2022-07-12T16:49:15;54.27;;;49.38;;
22425;SDS011;11380;50.822;15.790;2022-07-12T16:54:21;54.43;;;49.37;;
22425;SDS011;11380;50.822;15.790;2022-07-12T16:59:26;54.25;;;49.15;;
22425;SDS011;11380;50.822;15.790;2022-07-12T17:09:37;54.10;;;49.20;;
22425;SDS011;11380;50.822;15.790;2022-07-12T17:14:42;53.75;;;48.95;;
22425;SDS011;11380;50.822;15.790;2022-07-12T17:19:47;54.30;;;49.40;;
22425;SDS011;11380;50.822;15.790;2022-07-12T17:24:52;53.87;;;49.00;;
22425;SDS011;11380;50.822;15.790;2022-07-12T17:30:00;54.40;;;49.50;;
22425;SDS011;11380;50.822;15.790;2022-07-12T17:40:12;54.23;;;49.18;;
22425;SDS011;11380;50.822;15.790;2022-07-12T17:45:18;53.73;;;48.93;;
22425;SDS011;11380;50.822;15.790;2022-07-12T17:50:24;54.15;;;49.15;;
22425;SDS011;11380;50.822;15.790;2022-07-12T17:55:29;54.63;;;49.67;;
22425;SDS011;11380;50.822;15.790;2022-07-12T18:00:35;53.90;;;49.05;;
22425;SDS011;11380;50.822;15.790;2022-07-12T18:05:41;53.85;;;49.00;;
22425;SDS011;11380;50.822;15.790;2022-07-12T18:10:47;53.80;;;49.00;;
22425;SDS011;11380;50.822;15.790;2022-07-12T18:15:52;55.30;;;49.07;;
22425;SDS011;11380;50.822;15.790;2022-07-12T18:26:04;53.73;;;48.98;;
22425;SDS011;11380;50.822;15.790;2022-07-12T18:31:09;53.87;;;48.98;;
22425;SDS011;11380;50.822;15.790;2022-07-12T18:36:15;53.27;;;48.53;;
22425;SDS011;11380;50.822;15.790;2022-07-12T18:41:20;53.33;;;48.52;;
22425;SDS011;11380;50.822;15.790;2022-07-12T18:46:26;53.93;;;48.97;;
22425;SDS011;11380;50.822;15.790;2022-07-12T18:51:32;54.00;;;48.87;;
22425;SDS011;11380;50.822;15.790;2022-07-12T18:56:37;53.20;;;48.40;;
22425;SDS011;11380;50.822;15.790;2022-07-12T19:01:43;53.93;;;48.83;;
22425;SDS011;11380;50.822;15.790;2022-07-12T19:06:48;53.53;;;48.63;;
22425;SDS011;11380;50.822;15.790;2022-07-12T19:11:54;53.98;;;49.08;;
22425;SDS011;11380;50.822;15.790;2022-07-12T19:16:59;53.53;;;48.63;;
22425;SDS011;11380;50.822;15.790;2022-07-12T19:22:04;52.97;;;48.30;;
22425;SDS011;11380;50.822;15.790;2022-07-12T19:27:09;53.27;;;48.57;;
22425;SDS011;11380;50.822;15.790;2022-07-12T19:37:21;53.10;;;48.47;;
22425;SDS011;11380;50.822;15.790;2022-07-12T19:42:26;53.20;;;48.58;;
22425;SDS011;11380;50.822;15.790;2022-07-12T19:47:32;52.75;;;48.05;;
22425;SDS011;11380;50.822;15.790;2022-07-12T19:52:37;53.10;;;48.40;;
22425;SDS011;11380;50.822;15.790;2022-07-12T19:57:43;52.57;;;47.97;;
22425;SDS011;11380;50.822;15.790;2022-07-12T20:02:49;52.83;;;48.20;;
22425;SDS011;11380;50.822;15.790;2022-07-12T20:07:54;52.90;;;48.20;;
22425;SDS011;11380;50.822;15.790;2022-07-12T20:13:00;53.17;;;48.37;;
22425;SDS011;11380;50.822;15.790;2022-07-12T20:18:11;53.20;;;48.30;;
22425;SDS011;11380;50.822;15.790;2022-07-12T20:23:14;52.43;;;47.83;;
22425;SDS011;11380;50.822;15.790;2022-07-12T20:28:20;52.23;;;47.73;;
22425;SDS011;11380;50.822;15.790;2022-07-12T20:33:25;52.97;;;48.27;;
22425;SDS011;11380;50.822;15.790;2022-07-12T20:38:48;52.65;;;48.05;;
22425;SDS011;11380;50.822;15.790;2022-07-12T20:43:55;52.40;;;47.80;;
22425;SDS011;11380;50.822;15.790;2022-07-12T20:49:01;51.77;;;47.33;;
22425;SDS011;11380;50.822;15.790;2022-07-12T20:54:07;52.65;;;48.02;;
22425;SDS011;11380;50.822;15.790;2022-07-12T20:59:13;51.80;;;47.40;;
22425;SDS011;11380;50.822;15.790;2022-07-12T21:04:20;53.33;;;48.42;;
22425;SDS011;11380;50.822;15.790;2022-07-12T21:09:26;51.95;;;47.55;;
22425;SDS011;11380;50.822;15.790;2022-07-12T21:14:34;52.00;;;47.40;;
22425;SDS011;11380;50.822;15.790;2022-07-12T21:19:39;52.83;;;48.17;;
22425;SDS011;11380;50.822;15.790;2022-07-12T21:24:44;52.07;;;47.57;;
22425;SDS011;11380;50.822;15.790;2022-07-12T21:29:50;55.70;;;50.65;;
22425;SDS011;11380;50.822;15.790;2022-07-12T21:34:58;55.48;;;50.48;;
22425;SDS011;11380;50.822;15.790;2022-07-12T21:40:03;54.90;;;49.97;;
22425;SDS011;11380;50.822;15.790;2022-07-12T21:45:10;55.53;;;50.40;;
22425;SDS011;11380;50.822;15.790;2022-07-12T21:50:16;56.40;;;51.10;;
22425;SDS011;11380;50.822;15.790;2022-07-12T21:55:21;55.67;;;50.47;;
22425;SDS011;11380;50.822;15.790;2022-07-12T22:00:26;53.37;;;48.73;;
22425;SDS011;11380;50.822;15.790;2022-07-12T22:05:32;52.97;;;48.37;;
22425;SDS011;11380;50.822;15.790;2022-07-12T22:10:38;52.13;;;47.73;;
22425;SDS011;11380;50.822;15.790;2022-07-12T22:15:43;53.30;;;48.63;;
22425;SDS011;11380;50.822;15.790;2022-07-12T22:20:49;52.90;;;48.40;;
22425;SDS011;11380;50.822;15.790;2022-07-12T22:25:54;52.57;;;48.07;;
22425;SDS011;11380;50.822;15.790;2022-07-12T22:31:01;52.30;;;47.80;;
22425;SDS011;11380;50.822;15.790;2022-07-12T22:36:07;52.33;;;47.83;;
22425;SDS011;11380;50.822;15.790;2022-07-12T22:41:12;51.53;;;47.23;;
22425;SDS011;11380;50.822;15.790;2022-07-12T22:46:18;51.20;;;46.97;;
22425;SDS011;11380;50.822;15.790;2022-07-12T22:51:24;52.13;;;47.73;;
22425;SDS011;11380;50.822;15.790;2022-07-12T22:56:46;51.47;;;47.17;;
22425;SDS011;11380;50.822;15.790;2022-07-12T23:06:57;51.33;;;46.90;;
22425;SDS011;11380;50.822;15.790;2022-07-12T23:12:03;51.83;;;47.47;;
22425;SDS011;11380;50.822;15.790;2022-07-12T23:17:09;50.80;;;46.50;;
22425;SDS011;11380;50.822;15.790;2022-07-12T23:22:15;51.73;;;47.30;;
22425;SDS011;11380;50.822;15.790;2022-07-12T23:27:20;51.15;;;46.85;;
22425;SDS011;11380;50.822;15.790;2022-07-12T23:32:26;50.40;;;46.30;;
22425;SDS011;11380;50.822;15.790;2022-07-12T23:37:32;51.43;;;46.93;;
22425;SDS011;11380;50.822;15.790;2022-07-12T23:42:37;52.50;;;47.30;;
22425;SDS011;11380;50.822;15.790;2022-07-12T23:47:43;51.08;;;46.45;;
22425;SDS011;11380;50.822;15.790;2022-07-12T23:52:48;50.80;;;46.57;;
22425;SDS011;11380;50.822;15.790;2022-07-12T23:57:54;50.17;;;46.13;;
